Time;durP1;ratioP1;P1;durP2;ratioP2;P2;SDS_P1;SDS_P2;PMS_P1;PMS_P2;Temp;Humidity;BMP_temperature;BMP_pressure;BME280_temperature;BME280_humidity;BME280_pressure;Samples;Min_cycle;Max_cycle;Signal;HPM_P1;HPM_P2
2021/12/11 00:01:23;;;;;;;0.60;0.50;;;;;;;13.32;52.52;94429.59;5034703;28;20084;-28
2021/12/11 00:03:59;;;;;;;0.60;0.50;;;;;;;13.27;52.68;94439.22;5034492;28;20025;-28
2021/12/11 00:06:31;;;;;;;0.75;0.50;;;;;;;13.31;52.47;94428.09;5034405;28;20519;-28
2021/12/11 00:09:02;;;;;;;0.80;0.60;;;;;;;13.26;52.85;94426.09;5034320;28;20032;-28
2021/12/11 00:11:36;;;;;;;0.70;0.50;;;;;;;13.19;53.08;94426.59;5033224;28;20383;-28
2021/12/11 00:14:05;;;;;;;1.00;0.63;;;;;;;13.23;52.93;94433.28;5034195;28;20059;-28
2021/12/11 00:16:32;;;;;;;0.60;0.60;;;;;;;13.20;53.07;94428.84;5034253;28;20021;-28
2021/12/11 00:19:02;;;;;;;1.00;0.60;;;;;;;13.23;52.59;94430.53;5033909;28;20033;-28
2021/12/11 00:21:29;;;;;;;1.83;0.68;;;;;;;13.24;52.96;94429.31;5034351;28;20388;-28
2021/12/11 00:24:05;;;;;;;0.85;0.60;;;;;;;13.27;52.48;94430.31;5033970;28;20049;-28
2021/12/11 00:26:38;;;;;;;0.80;0.57;;;;;;;13.27;52.73;94431.06;5034280;28;20079;-28
2021/12/11 00:29:06;;;;;;;0.95;0.60;;;;;;;13.26;52.42;94437.00;5033972;28;20053;-28
2021/12/11 00:31:34;;;;;;;1.75;0.70;;;;;;;13.25;52.23;94430.81;5034002;28;20042;-28
2021/12/11 00:34:03;;;;;;;0.77;0.50;;;;;;;13.24;52.86;94434.75;5033834;28;20033;-28
2021/12/11 00:36:34;;;;;;;0.63;0.40;;;;;;;13.23;52.63;94443.41;5033803;28;20017;-28
2021/12/11 00:39:11;;;;;;;0.85;0.43;;;;;;;13.23;52.73;94437.97;5033887;28;20490;-28
2021/12/11 00:41:36;;;;;;;1.23;0.60;;;;;;;13.21;52.47;94440.47;5033710;28;20391;-28
2021/12/11 00:44:02;;;;;;;0.93;0.60;;;;;;;13.23;52.15;94437.97;5033735;28;20021;-28
2021/12/11 00:46:30;;;;;;;0.60;0.40;;;;;;;13.26;52.76;94447.88;5033774;28;20029;-28
2021/12/11 00:49:28;;;;;;;0.80;0.55;;;;;;;13.07;53.13;94450.28;5033887;28;20112;-28
2021/12/11 00:51:54;;;;;;;1.20;0.85;;;;;;;13.21;52.46;94443.94;5033177;28;20040;-28
2021/12/11 00:54:21;;;;;;;0.95;0.70;;;;;;;13.21;52.15;94443.94;5033093;28;20463;-28
2021/12/11 00:56:47;;;;;;;1.05;0.50;;;;;;;13.25;52.12;94443.66;5033459;28;20024;-28
2021/12/11 00:59:18;;;;;;;0.70;0.60;;;;;;;13.25;52.54;94458.03;5033465;28;20503;-28
2021/12/11 01:02:04;;;;;;;0.47;0.40;;;;;;;13.23;52.51;94457.03;5033330;28;20042;-28
2021/12/11 01:04:41;;;;;;;0.60;0.50;;;;;;;13.16;52.30;94463.69;5033355;28;20435;-28
2021/12/11 01:07:19;;;;;;;0.82;0.50;;;;;;;13.06;52.70;94462.41;5033357;28;20033;-28
2021/12/11 01:09:57;;;;;;;0.45;0.40;;;;;;;13.06;52.88;94461.66;5033419;28;20428;-28
2021/12/11 01:12:39;;;;;;;0.52;0.40;;;;;;;13.17;52.39;94467.16;5033389;28;20033;-28
2021/12/11 01:15:26;;;;;;;0.20;0.20;;;;;;;13.14;52.38;94468.88;5033525;28;20079;-28
2021/12/11 01:18:03;;;;;;;0.77;0.40;;;;;;;13.18;52.41;94468.66;5033449;28;20029;-28
2021/12/11 01:20:44;;;;;;;0.38;0.32;;;;;;;13.14;52.16;94474.31;5033317;28;20060;-28
2021/12/11 01:23:16;;;;;;;0.25;0.25;;;;;;;13.16;52.58;94477.31;5033407;28;20091;-28
2021/12/11 01:25:43;;;;;;;0.50;0.40;;;;;;;13.11;52.27;94491.59;5033505;28;20028;-28
2021/12/11 01:28:09;;;;;;;0.30;0.30;;;;;;;13.09;52.23;94483.22;5033242;28;20474;-28
2021/12/11 01:30:40;;;;;;;0.50;0.40;;;;;;;13.01;52.69;94481.41;5065408;28;20403;-28
2021/12/11 01:33:08;;;;;;;0.30;0.22;;;;;;;13.08;52.05;94484.44;5037442;28;20380;-28
2021/12/11 01:35:34;;;;;;;0.60;0.30;;;;;;;13.01;52.18;94490.31;5037348;28;20491;-28
2021/12/11 01:38:06;;;;;;;0.77;0.47;;;;;;;13.03;52.25;94485.16;5037367;28;20047;-28
2021/12/11 01:40:32;;;;;;;0.70;0.40;;;;;;;12.96;52.23;94493.78;5034743;28;20017;-28
2021/12/11 01:43:04;;;;;;;0.50;0.30;;;;;;;12.97;52.19;94492.56;5022834;28;20096;-28
2021/12/11 01:45:31;;;;;;;0.35;0.30;;;;;;;12.96;52.33;94491.06;5016084;28;20029;-28
2021/12/11 01:47:57;;;;;;;0.30;0.30;;;;;;;13.03;52.56;94498.00;5017401;28;20022;-28
2021/12/11 01:50:45;;;;;;;0.30;0.20;;;;;;;13.03;52.00;94495.28;5017309;28;20076;-28
2021/12/11 01:53:23;;;;;;;0.30;0.20;;;;;;;12.95;52.24;94498.47;5017088;28;20098;-28
2021/12/11 01:56:11;;;;;;;0.55;0.30;;;;;;;12.84;52.23;94501.16;5017172;28;20026;-28
2021/12/11 01:58:45;;;;;;;0.30;0.30;;;;;;;12.99;51.75;94509.13;5016924;28;20507;-28
2021/12/11 02:01:15;;;;;;;0.65;0.20;;;;;;;12.98;52.05;94504.19;5016967;28;20030;-28
2021/12/11 02:03:42;;;;;;;0.47;0.20;;;;;;;12.99;51.77;94511.84;5017087;28;20026;-28
2021/12/11 02:06:09;;;;;;;0.20;0.20;;;;;;;12.92;51.75;94506.88;5017111;28;20487;-28
2021/12/11 02:08:38;;;;;;;0.38;0.20;;;;;;;12.92;51.72;94515.78;5016848;28;20034;-28
2021/12/11 02:11:26;;;;;;;0.30;0.20;;;;;;;13.01;51.82;94514.06;5016825;28;20056;-28
2021/12/11 02:13:59;;;;;;;0.20;0.20;;;;;;;12.86;51.84;94515.00;5016905;28;20026;-28
2021/12/11 02:16:43;;;;;;;0.20;0.20;;;;;;;12.95;51.98;94516.78;5016696;28;20025;-28
2021/12/11 02:19:28;;;;;;;0.47;0.10;;;;;;;13.00;51.46;94523.47;5016611;28;20032;-28
2021/12/11 02:22:07;;;;;;;0.30;0.20;;;;;;;13.00;51.38;94512.59;5016577;28;20087;-28
2021/12/11 02:24:47;;;;;;;0.22;0.20;;;;;;;12.96;52.01;94518.28;5016903;28;20025;-28
2021/12/11 02:27:26;;;;;;;0.22;0.22;;;;;;;13.03;51.26;94515.06;5016507;28;20100;-28
2021/12/11 02:29:56;;;;;;;0.13;0.13;;;;;;;12.90;51.70;94520.22;5016945;28;20026;-28
2021/12/11 02:32:39;;;;;;;0.20;0.20;;;;;;;12.98;51.41;94515.81;5016523;28;20036;-28
2021/12/11 02:35:12;;;;;;;0.10;0.10;;;;;;;12.85;52.03;94515.50;5016420;28;20026;-28
2021/12/11 02:37:45;;;;;;;0.20;0.17;;;;;;;12.91;51.63;94514.28;5016452;28;20424;-28
2021/12/11 02:40:22;;;;;;;0.60;0.10;;;;;;;12.99;51.08;94514.56;5016274;28;20026;-28
2021/12/11 02:42:56;;;;;;;0.25;0.10;;;;;;;13.03;51.42;94525.97;5016100;28;20040;-28
2021/12/11 02:45:30;;;;;;;0.20;0.20;;;;;;;12.85;51.60;94523.66;5015416;28;20439;-28
2021/12/11 02:48:02;;;;;;;0.10;0.10;;;;;;;12.78;51.80;94526.81;5016339;28;20430;-28
2021/12/11 02:50:30;;;;;;;0.10;0.10;;;;;;;12.85;51.43;94535.28;5014964;28;20376;-28
2021/12/11 02:53:12;;;;;;;0.10;0.10;;;;;;;12.85;51.74;94534.53;5015153;28;20389;-28
2021/12/11 02:55:46;;;;;;;0.13;0.10;;;;;;;12.86;51.31;94525.13;5016178;28;20034;-28
2021/12/11 02:58:22;;;;;;;0.10;0.10;;;;;;;12.82;51.81;94536.25;5016074;28;20073;-28
2021/12/11 03:00:54;;;;;;;0.10;0.10;;;;;;;12.77;51.84;94544.38;5014255;28;20434;-28
2021/12/11 03:03:27;;;;;;;0.38;0.20;;;;;;;12.84;51.66;94546.66;5015703;28;20057;-28
2021/12/11 03:06:03;;;;;;;0.13;0.13;;;;;;;12.97;51.23;94536.09;5015965;28;20018;-28
2021/12/11 03:08:29;;;;;;;0.65;0.20;;;;;;;12.77;51.47;94539.69;5015730;28;20032;-28
2021/12/11 03:10:58;;;;;;;0.10;0.10;;;;;;;12.90;50.87;94547.41;5015695;28;20089;-28
2021/12/11 03:13:27;;;;;;;0.10;0.10;;;;;;;12.90;50.94;94542.72;5015682;28;20033;-28
2021/12/11 03:15:52;;;;;;;0.28;0.20;;;;;;;12.83;51.41;94537.00;5015650;28;20021;-28
2021/12/11 03:18:18;;;;;;;0.20;0.10;;;;;;;12.86;51.12;94536.00;5015804;28;20048;-28
2021/12/11 03:20:45;;;;;;;0.20;0.10;;;;;;;12.89;51.29;94535.78;5015660;28;20038;-28
2021/12/11 03:23:11;;;;;;;0.40;0.17;;;;;;;12.98;51.03;94531.41;5015794;28;20026;-28
2021/12/11 03:25:38;;;;;;;0.20;0.10;;;;;;;12.89;50.97;94535.03;5015654;28;20030;-28
2021/12/11 03:28:05;;;;;;;0.13;0.10;;;;;;;12.86;51.02;94546.88;5015479;28;20071;-28
2021/12/11 03:30:35;;;;;;;0.80;0.20;;;;;;;12.92;51.15;94539.53;5015367;28;20029;-29
2021/12/11 03:33:06;;;;;;;0.43;0.10;;;;;;;12.81;51.16;94542.19;5015571;28;20025;-28
2021/12/11 03:35:32;;;;;;;1.00;0.20;;;;;;;12.81;51.41;94551.09;5015266;28;20029;-28
2021/12/11 03:37:58;;;;;;;0.77;0.25;;;;;;;12.79;51.22;94558.25;5015273;28;20022;-28
2021/12/11 03:40:24;;;;;;;0.10;0.10;;;;;;;12.90;51.08;94563.75;5015264;28;20033;-28
2021/12/11 03:42:52;;;;;;;0.68;0.10;;;;;;;12.87;51.29;94567.44;5015099;28;20045;-28
2021/12/11 03:45:23;;;;;;;0.10;0.10;;;;;;;12.92;50.96;94567.47;5015032;28;20024;-28
2021/12/11 03:47:54;;;;;;;1.83;0.13;;;;;;;12.91;50.88;94576.13;5015201;28;20026;-28
2021/12/11 03:50:22;;;;;;;0.47;0.30;;;;;;;12.95;50.83;94576.63;5013790;28;20022;-28
2021/12/11 03:52:49;;;;;;;0.10;0.10;;;;;;;12.90;51.01;94585.50;5014921;28;20060;-28
2021/12/11 03:55:29;;;;;;;0.20;0.10;;;;;;;12.95;51.02;94584.81;5014316;28;20030;-28
2021/12/11 03:57:59;;;;;;;0.30;0.15;;;;;;;12.86;51.25;94580.28;5014717;28;20108;-28
2021/12/11 04:00:33;;;;;;;0.15;0.15;;;;;;;12.89;51.35;94573.13;5014673;28;20070;-28
2021/12/11 04:03:03;;;;;;;;;;;;;;;12.85;51.48;94589.69;5015370;28;20053;-28
2021/12/11 04:05:34;;;;;;;0.30;0.20;;;;;;;12.87;51.42;94591.91;5014583;28;19910;-28
2021/12/11 04:07:59;;;;;;;0.20;0.10;;;;;;;12.89;51.01;94594.91;5014771;28;20028;-28
2021/12/11 04:10:27;;;;;;;0.30;0.15;;;;;;;12.91;50.81;94609.50;5014629;28;20484;-28
2021/12/11 04:12:55;;;;;;;0.10;0.10;;;;;;;12.83;51.58;94605.75;5014804;28;20036;-28
2021/12/11 04:15:21;;;;;;;0.13;0.10;;;;;;;12.73;51.19;94611.88;5014668;28;20354;-28
2021/12/11 04:17:47;;;;;;;0.10;0.10;;;;;;;12.78;51.00;94611.16;5014591;28;20048;-28
2021/12/11 04:20:17;;;;;;;0.40;0.20;;;;;;;12.77;51.28;94620.53;5014335;28;20029;-28
2021/12/11 04:22:43;;;;;;;0.30;0.10;;;;;;;12.71;51.69;94619.75;5014498;28;20079;-28
2021/12/11 04:25:11;;;;;;;0.28;0.10;;;;;;;12.84;51.04;94601.81;5013062;28;20026;-28
2021/12/11 04:27:37;;;;;;;0.22;0.10;;;;;;;12.73;51.14;94604.47;5014341;28;20097;-28
2021/12/11 04:30:09;;;;;;;0.10;0.10;;;;;;;12.78;51.13;94611.88;5014375;28;20072;-28
2021/12/11 04:32:36;;;;;;;0.10;0.10;;;;;;;12.67;51.87;94605.63;5014614;28;20030;-28
2021/12/11 04:35:05;;;;;;;0.05;0.05;;;;;;;12.65;51.58;94606.09;5014320;28;20052;-28
2021/12/11 04:37:32;;;;;;;0.20;0.20;;;;;;;12.76;50.84;94610.88;5014318;28;20030;-28
2021/12/11 04:40:03;;;;;;;0.17;0.10;;;;;;;12.79;51.04;94593.59;5014145;28;20018;-28
2021/12/11 04:45:08;;;;;;;0.10;0.10;;;;;;;12.71;50.75;94611.59;5014174;28;20053;-28
2021/12/11 04:47:41;;;;;;;0.10;0.10;;;;;;;12.66;50.84;94613.03;5014017;28;20025;-28
2021/12/11 04:50:18;;;;;;;0.22;0.05;;;;;;;12.66;50.73;94625.91;5014069;28;20156;-28
2021/12/11 04:52:54;;;;;;;0.35;0.13;;;;;;;12.65;50.62;94636.03;5012706;28;20373;-28
2021/12/11 04:58:06;;;;;;;0.10;0.10;;;;;;;12.72;50.36;94648.44;5013727;28;20570;-28
2021/12/11 05:11:01;;;;;;;0.45;0.20;;;;;;;12.64;50.84;94650.84;5014023;28;20071;-28
2021/12/11 05:13:28;;;;;;;2.13;0.20;;;;;;;12.67;50.63;94660.03;5013614;28;20018;-28
2021/12/11 05:15:58;;;;;;;1.23;0.20;;;;;;;12.58;51.01;94658.97;5013565;28;20026;-28
2021/12/11 05:18:27;;;;;;;0.05;0.05;;;;;;;12.60;50.83;94666.66;5013604;28;20068;-28
2021/12/11 05:20:58;;;;;;;0.10;0.10;;;;;;;12.61;50.42;94664.69;5013578;28;20030;-28
2021/12/11 05:23:24;;;;;;;0.20;0.10;;;;;;;12.63;50.67;94675.81;5013526;28;20021;-28
2021/12/11 05:25:51;;;;;;;0.17;0.10;;;;;;;12.64;50.80;94674.56;5012276;28;20115;-28
2021/12/11 05:28:17;;;;;;;0.40;0.10;;;;;;;12.69;50.94;94685.50;5013756;28;20072;-28
2021/12/11 05:30:47;;;;;;;0.60;0.20;;;;;;;12.64;50.80;94688.19;5013588;28;20526;-28
2021/12/11 05:33:15;;;;;;;0.10;0.10;;;;;;;12.64;50.94;94699.06;5013513;28;20022;-28
2021/12/11 05:35:41;;;;;;;0.10;0.00;;;;;;;12.78;50.46;94706.34;5013545;28;20025;-28
2021/12/11 05:38:11;;;;;;;0.10;0.10;;;;;;;12.67;50.85;94707.00;5013602;28;20104;-28
2021/12/11 05:40:42;;;;;;;0.30;0.20;;;;;;;12.65;50.91;94720.34;5013438;28;20483;-28
2021/12/11 05:43:08;;;;;;;0.10;0.10;;;;;;;12.71;50.55;94717.69;5013354;28;20089;-28
2021/12/11 05:45:33;;;;;;;0.25;0.10;;;;;;;12.68;50.56;94743.09;5013346;28;20041;-28
2021/12/11 05:48:00;;;;;;;0.20;0.10;;;;;;;12.67;50.50;94742.38;5013517;28;20034;-28
2021/12/11 05:50:33;;;;;;;0.20;0.20;;;;;;;12.67;50.58;94757.94;5013209;28;20425;-28
2021/12/11 05:52:59;;;;;;;;;;;;;;;12.67;50.49;94753.25;5012381;28;20392;-28
2021/12/11 05:55:25;;;;;;;0.90;0.20;;;;;;;12.69;50.88;94758.19;5013309;28;20008;-28
2021/12/11 05:57:55;;;;;;;0.20;0.20;;;;;;;12.64;50.78;94765.06;5019684;28;20113;-28
2021/12/11 06:00:28;;;;;;;0.30;0.20;;;;;;;12.63;51.03;94776.44;5031039;28;20037;-28
2021/12/11 06:02:55;;;;;;;1.10;0.30;;;;;;;12.72;50.71;94782.47;5031108;28;20025;-28
2021/12/11 06:05:21;;;;;;;0.57;0.30;;;;;;;12.60;50.79;94786.31;5030922;28;20091;-28
2021/12/11 06:07:46;;;;;;;0.77;0.32;;;;;;;12.64;50.81;94788.81;5030973;28;20034;-28
2021/12/11 06:10:16;;;;;;;0.57;0.30;;;;;;;12.66;50.57;94802.66;5030608;28;20109;-28
2021/12/11 06:12:44;;;;;;;0.40;0.30;;;;;;;12.69;50.90;94801.72;5030870;28;20395;-28
2021/12/11 06:15:09;;;;;;;0.70;0.50;;;;;;;12.72;50.42;94808.94;5030757;28;20057;-28
2021/12/11 06:17:37;;;;;;;0.85;0.50;;;;;;;12.71;50.54;94813.63;5032153;28;20436;-28
2021/12/11 06:20:07;;;;;;;0.70;0.60;;;;;;;12.72;50.40;94815.13;5034704;28;20028;-28
2021/12/11 06:22:35;;;;;;;1.10;0.57;;;;;;;12.69;50.74;94812.59;5034478;28;20463;-28
2021/12/11 06:25:06;;;;;;;0.80;0.50;;;;;;;12.70;51.04;94816.81;5034515;28;20025;-28
2021/12/11 06:27:31;;;;;;;0.60;0.47;;;;;;;12.20;52.36;94820.47;5034602;28;20095;-28
2021/12/11 06:29:57;;;;;;;0.93;0.47;;;;;;;12.50;51.02;94815.59;5032651;28;20025;-28
2021/12/11 06:32:24;;;;;;;0.77;0.60;;;;;;;12.61;50.87;94823.13;5034431;28;20025;-28
2021/12/11 06:34:51;;;;;;;1.50;0.60;;;;;;;12.61;51.15;94833.28;5034083;28;20104;-28
2021/12/11 06:37:20;;;;;;;1.30;0.60;;;;;;;12.63;50.89;94839.72;5034188;28;20029;-28
2021/12/11 06:39:45;;;;;;;1.20;0.50;;;;;;;12.65;50.76;94844.69;5034134;28;20112;-28
2021/12/11 06:42:11;;;;;;;0.90;0.68;;;;;;;12.61;50.39;94858.50;5034153;28;20520;-28
2021/12/11 06:44:38;;;;;;;0.70;0.50;;;;;;;12.29;51.43;94865.03;5034181;28;20029;-28
2021/12/11 06:47:07;;;;;;;0.65;0.55;;;;;;;12.62;50.57;94864.69;5033622;28;20033;-28
2021/12/11 06:49:34;;;;;;;1.42;0.80;;;;;;;12.56;50.62;94880.94;5034191;28;20041;-28
2021/12/11 06:52:03;;;;;;;0.98;0.63;;;;;;;12.55;50.96;94879.44;5034005;28;20024;-28
2021/12/11 06:54:29;;;;;;;1.98;0.70;;;;;;;12.49;50.85;94890.25;5034007;28;20056;-28
2021/12/11 06:56:54;;;;;;;2.00;0.80;;;;;;;12.49;50.46;94895.69;5033572;28;20025;-28
2021/12/11 06:59:21;;;;;;;1.40;0.82;;;;;;;12.56;50.26;94906.16;5033485;28;20446;-28
2021/12/11 07:01:46;;;;;;;1.20;0.70;;;;;;;12.61;50.46;94906.72;5033520;28;20052;-28
2021/12/11 07:04:12;;;;;;;1.98;0.70;;;;;;;12.58;50.49;94905.69;5033733;28;20464;-28
2021/12/11 07:06:42;;;;;;;1.55;0.60;;;;;;;12.46;50.75;94904.81;5033841;28;20052;-28
2021/12/11 07:09:10;;;;;;;1.70;0.93;;;;;;;12.40;50.93;94920.28;5033192;28;20029;-28
2021/12/11 07:11:39;;;;;;;1.70;0.90;;;;;;;12.43;50.81;94892.16;5033671;28;20502;-28
2021/12/11 07:14:06;;;;;;;1.33;0.80;;;;;;;12.46;50.51;94921.13;5033594;28;20471;-28
2021/12/11 07:16:33;;;;;;;1.42;0.90;;;;;;;12.45;50.59;94918.88;5033500;28;20025;-28
2021/12/11 07:18:58;;;;;;;2.03;0.98;;;;;;;12.52;50.57;94927.38;5032058;28;20040;-28
2021/12/11 07:21:24;;;;;;;1.67;0.90;;;;;;;12.44;50.95;94914.66;5031496;28;20768;-28
2021/12/11 07:23:50;;;;;;;1.60;1.10;;;;;;;12.18;50.29;94920.72;5033412;28;20083;-28
2021/12/11 07:26:23;;;;;;;1.25;0.82;;;;;;;12.35;50.75;94920.97;5016185;28;20447;-28
2021/12/11 07:28:53;;;;;;;1.98;1.00;;;;;;;12.47;50.72;94925.34;5010679;28;20026;-28
2021/12/11 07:31:19;;;;;;;1.58;1.08;;;;;;;12.54;50.04;94930.38;5013558;28;20033;-29
2021/12/11 07:33:46;;;;;;;2.05;0.90;;;;;;;12.49;50.42;94933.00;5013384;28;20036;-29
2021/12/11 07:36:11;;;;;;;2.00;1.05;;;;;;;12.43;50.24;94932.94;5013462;28;20032;-28
2021/12/11 07:38:37;;;;;;;1.65;0.95;;;;;;;12.44;50.71;94939.88;5013424;28;20112;-28
2021/12/11 07:41:08;;;;;;;3.42;1.23;;;;;;;12.52;49.97;94940.97;5013075;28;20038;-28
2021/12/11 07:43:35;;;;;;;1.90;1.08;;;;;;;12.41;50.45;94940.06;5013027;28;20040;-28
2021/12/11 07:46:03;;;;;;;1.42;0.80;;;;;;;12.53;49.88;94928.88;5017095;28;20033;-28
2021/12/11 07:48:28;;;;;;;1.70;0.90;;;;;;;12.37;50.51;94948.41;5032784;28;20104;-28
2021/12/11 07:50:54;;;;;;;1.33;1.00;;;;;;;12.47;50.02;94952.53;5032765;28;20160;-28
2021/12/11 07:53:21;;;;;;;1.73;0.90;;;;;;;12.33;50.54;94964.19;5032824;28;20025;-28
2021/12/11 07:55:47;;;;;;;3.50;1.27;;;;;;;12.51;50.15;94960.47;5032710;28;20534;-28
2021/12/11 07:58:13;;;;;;;1.30;1.08;;;;;;;12.37;50.34;94972.88;5032473;28;20077;-28
2021/12/11 08:00:42;;;;;;;1.63;1.15;;;;;;;12.43;49.73;94976.44;5032690;28;20049;-28
2021/12/11 08:03:10;;;;;;;1.40;1.00;;;;;;;12.35;49.96;94980.03;5032734;28;20468;-28
2021/12/11 08:05:37;;;;;;;2.38;1.25;;;;;;;12.26;50.33;94985.56;5032683;28;20021;-28
2021/12/11 08:08:05;;;;;;;1.55;1.00;;;;;;;12.41;49.40;95000.63;5032778;28;20025;-28
2021/12/11 08:10:34;;;;;;;1.90;0.98;;;;;;;12.42;49.37;95009.53;5032289;28;20029;-28
2021/12/11 08:13:02;;;;;;;0.90;0.80;;;;;;;12.27;50.48;95006.84;5032525;28;20499;-28
2021/12/11 08:15:27;;;;;;;1.00;0.80;;;;;;;12.48;49.34;95029.41;5032482;28;20037;-28
2021/12/11 08:17:54;;;;;;;3.38;0.93;;;;;;;12.46;49.30;95029.88;5032202;28;20033;-28
2021/12/11 08:20:27;;;;;;;1.88;1.13;;;;;;;12.45;49.60;95035.78;5032088;28;20061;-28
2021/12/11 08:22:54;;;;;;;1.52;0.90;;;;;;;12.42;49.35;95032.03;5031930;28;20071;-28
2021/12/11 08:25:21;;;;;;;1.88;1.10;;;;;;;12.20;49.98;95037.13;5032283;28;20037;-28
2021/12/11 08:27:48;;;;;;;2.08;1.00;;;;;;;12.36;49.41;95049.50;5032355;28;20029;-28
2021/12/11 08:30:14;;;;;;;1.30;1.00;;;;;;;12.31;49.61;95064.50;5030387;28;20033;-28
2021/12/11 08:32:40;;;;;;;1.42;0.82;;;;;;;12.31;49.43;95072.66;5032180;28;20037;-28
2021/12/11 08:35:09;;;;;;;1.67;0.90;;;;;;;12.52;48.35;95066.06;5030338;28;20037;-28
2021/12/11 08:37:36;;;;;;;1.85;1.30;;;;;;;12.52;48.99;95081.63;5032052;28;20052;-28
2021/12/11 08:40:07;;;;;;;2.65;1.50;;;;;;;12.45;49.01;95085.47;5031782;28;20033;-28
2021/12/11 08:42:33;;;;;;;2.25;1.42;;;;;;;12.46;48.87;95075.34;5032025;28;20029;-28
2021/12/11 08:45:06;;;;;;;1.95;1.15;;;;;;;12.43;49.31;95081.72;5031667;28;20037;-28
2021/12/11 08:47:39;;;;;;;1.70;1.30;;;;;;;12.43;48.86;95087.16;5014856;28;20092;-28
2021/12/11 08:50:09;;;;;;;2.03;1.20;;;;;;;12.46;49.24;95100.56;5012325;28;20065;-28
2021/12/11 08:52:39;;;;;;;1.80;1.20;;;;;;;11.82;50.67;95103.16;5012150;28;20038;-28
2021/12/11 08:55:08;;;;;;;1.70;1.30;;;;;;;11.06;49.20;95104.59;5011835;28;20026;-28
2021/12/11 08:57:39;;;;;;;1.75;1.30;;;;;;;10.37;50.92;95103.53;5043228;28;20360;-28
2021/12/11 09:00:37;;;;;;;1.67;1.30;;;;;;;11.47;48.14;95100.25;5011745;28;20069;-28
2021/12/11 09:03:14;;;;;;;2.08;1.05;;;;;;;11.93;47.33;95089.78;5011406;28;20038;-28
2021/12/11 09:05:55;;;;;;;3.22;1.25;;;;;;;12.18;47.01;95108.25;5011714;28;20030;-28
2021/12/11 09:08:29;;;;;;;2.78;1.30;;;;;;;12.17;47.03;95114.91;5011121;28;20048;-28
2021/12/11 09:11:29;;;;;;;2.10;1.15;;;;;;;12.23;47.12;95115.03;5011299;28;20021;-28
2021/12/11 09:14:00;;;;;;;4.78;1.30;;;;;;;12.36;46.86;95117.47;4988790;28;20112;-28
2021/12/11 09:16:46;;;;;;;2.83;1.20;;;;;;;12.33;47.39;95121.88;5011850;28;20080;-28
2021/12/11 09:19:25;;;;;;;2.88;1.30;;;;;;;11.65;47.92;95119.13;5043523;28;20103;-28
2021/12/11 09:21:57;;;;;;;2.35;1.33;;;;;;;12.01;48.41;95141.78;5011334;28;20176;-28
2021/12/11 09:24:26;;;;;;;2.42;1.08;;;;;;;12.15;47.90;95127.47;5011755;28;20029;-28
2021/12/11 09:27:02;;;;;;;1.58;1.20;;;;;;;12.10;47.88;95142.47;5043221;28;20038;-28
2021/12/11 09:29:42;;;;;;;1.77;1.17;;;;;;;12.20;47.65;95151.28;5009657;28;20034;-28
2021/12/11 09:32:27;;;;;;;1.95;1.38;;;;;;;12.21;47.79;95141.91;5011550;28;20069;-28
2021/12/11 09:35:17;;;;;;;1.80;1.20;;;;;;;12.20;47.83;95181.19;5011232;28;20041;-28
2021/12/11 09:37:46;;;;;;;3.97;1.40;;;;;;;12.32;47.04;95161.13;5011217;28;20038;-28
2021/12/11 09:40:27;;;;;;;1.88;1.17;;;;;;;12.46;47.26;95167.81;5011237;28;20117;-28
2021/12/11 09:42:52;;;;;;;2.33;1.23;;;;;;;12.31;47.67;95177.91;5011689;28;20062;-28
2021/12/11 09:45:23;;;;;;;1.80;1.07;;;;;;;12.13;47.83;95174.13;5011026;28;20053;-28
2021/12/11 09:48:00;;;;;;;1.40;1.13;;;;;;;12.21;47.83;95171.81;5030472;28;20274;-28
2021/12/11 09:50:45;;;;;;;2.15;1.20;;;;;;;12.42;46.91;95184.28;5031147;28;20519;-28
2021/12/11 09:53:13;;;;;;;3.15;1.30;;;;;;;12.52;46.83;95177.53;5033305;28;20037;-28
2021/12/11 09:55:39;;;;;;;1.92;1.10;;;;;;;12.42;46.98;95192.44;5034838;28;20116;-28
2021/12/11 09:58:09;;;;;;;1.67;1.08;;;;;;;12.50;47.00;95179.97;5034409;28;20027;-28
2021/12/11 10:00:39;;;;;;;3.60;1.63;;;;;;;12.63;46.68;95189.81;5034833;28;20033;-28
2021/12/11 10:03:08;;;;;;;1.75;1.15;;;;;;;12.45;46.85;95190.78;5034639;28;20036;-28
2021/12/11 10:06:00;;;;;;;1.30;1.20;;;;;;;12.60;46.65;95180.66;5034738;28;20029;-28
2021/12/11 10:08:30;;;;;;;1.70;1.25;;;;;;;12.53;46.90;95191.91;5033511;28;20422;-28
2021/12/11 10:11:11;;;;;;;2.00;1.25;;;;;;;12.51;46.83;95197.78;5033069;28;20025;-28
2021/12/11 10:13:43;;;;;;;3.42;1.25;;;;;;;12.22;47.75;95195.81;5034347;28;20394;-28
2021/12/11 10:16:09;;;;;;;2.38;1.48;;;;;;;12.49;47.02;95194.78;5034203;28;20030;-28
2021/12/11 10:18:35;;;;;;;4.00;2.42;;;;;;;12.45;47.06;95183.38;5034712;28;20100;-28
2021/12/11 10:21:19;;;;;;;2.72;1.38;;;;;;;12.50;47.01;95195.53;5034120;28;20420;-28
2021/12/11 10:23:48;;;;;;;2.97;1.50;;;;;;;12.52;47.15;95206.72;5066462;28;20563;-28
2021/12/11 10:26:15;;;;;;;2.20;1.30;;;;;;;12.48;47.22;95203.44;5032862;28;20022;-28
2021/12/11 10:28:45;;;;;;;3.83;1.58;;;;;;;12.38;47.19;95210.91;5032710;28;20025;-28
2021/12/11 10:31:18;;;;;;;2.92;1.40;;;;;;;12.34;47.33;95187.88;5034185;28;20017;-28
2021/12/11 10:33:44;;;;;;;2.78;1.50;;;;;;;12.19;47.39;95199.47;5034228;28;20094;-28
2021/12/11 10:36:14;;;;;;;2.38;1.30;;;;;;;12.26;47.65;95197.59;5033724;28;20029;-28
2021/12/11 10:38:41;;;;;;;2.78;1.30;;;;;;;12.39;47.21;95195.34;5034275;28;20026;-28
2021/12/11 10:41:08;;;;;;;1.98;1.38;;;;;;;11.98;48.38;95200.56;5034272;28;20084;-30
2021/12/11 10:43:36;;;;;;;3.05;1.35;;;;;;;11.95;48.33;95206.16;5034225;28;20116;-28
2021/12/11 10:46:05;;;;;;;2.80;1.50;;;;;;;12.29;47.78;95200.13;5029262;28;20449;-28
2021/12/11 10:48:34;;;;;;;3.00;1.45;;;;;;;12.38;47.07;95213.63;5014794;28;20468;-28
2021/12/11 10:51:11;;;;;;;2.45;1.35;;;;;;;12.32;47.45;95212.03;5033928;28;20112;-28
2021/12/11 10:53:40;;;;;;;2.70;1.35;;;;;;;12.46;47.20;95214.78;5033685;28;20375;-28
2021/12/11 10:56:07;;;;;;;1.80;1.50;;;;;;;12.04;47.92;95227.81;5021595;28;20129;-28
2021/12/11 10:58:42;;;;;;;1.90;1.30;;;;;;;12.20;47.56;95224.69;5013814;28;20081;-28
2021/12/11 11:01:29;;;;;;;2.25;1.33;;;;;;;12.37;47.51;95225.72;5014147;28;20042;-28
2021/12/11 11:03:59;;;;;;;2.40;1.48;;;;;;;12.52;46.75;95226.50;5012728;28;20029;-28
2021/12/11 11:06:25;;;;;;;4.57;1.60;;;;;;;12.58;46.59;95232.03;5013868;28;20032;-28
2021/12/11 11:08:51;;;;;;;2.45;1.60;;;;;;;12.49;47.17;95230.16;5013639;28;20411;-28
2021/12/11 11:11:20;;;;;;;3.45;1.70;;;;;;;12.49;47.11;95238.31;5012402;28;20388;-28
2021/12/11 11:13:47;;;;;;;2.42;1.50;;;;;;;12.36;47.52;95235.13;5013772;28;20030;-28
2021/12/11 11:16:14;;;;;;;1.65;1.38;;;;;;;12.56;47.04;95254.25;5013387;28;20057;-28
2021/12/11 11:18:40;;;;;;;4.03;1.75;;;;;;;12.51;47.01;95263.06;5013716;28;20025;-28
2021/12/11 11:21:07;;;;;;;3.30;1.55;;;;;;;12.37;47.19;95263.78;5025833;28;20480;-28
2021/12/11 11:23:33;;;;;;;2.92;1.73;;;;;;;12.39;47.22;95279.63;5035185;28;20103;-28
2021/12/11 11:26:03;;;;;;;1.88;1.40;;;;;;;12.38;47.54;95269.97;5033715;28;20033;-28
2021/12/11 11:28:33;;;;;;;3.05;1.60;;;;;;;12.49;47.08;95276.38;5035172;28;20120;-28
2021/12/11 11:31:06;;;;;;;3.15;1.52;;;;;;;12.54;46.55;95283.91;5035282;28;20017;-28
2021/12/11 11:33:33;;;;;;;3.55;1.42;;;;;;;12.63;46.72;95282.31;5035124;28;20021;-28
2021/12/11 11:36:01;;;;;;;2.97;1.70;;;;;;;12.40;47.02;95290.06;5035202;28;20157;-28
2021/12/11 11:38:30;;;;;;;3.38;1.33;;;;;;;12.38;47.00;95289.75;5035088;28;20555;-28
2021/12/11 11:41:04;;;;;;;3.03;1.23;;;;;;;12.55;46.96;95293.56;5035238;28;20021;-28
2021/12/11 11:43:29;;;;;;;8.07;1.60;;;;;;;12.24;47.62;95304.06;5035074;28;20025;-28
2021/12/11 11:45:56;;;;;;;3.15;1.50;;;;;;;12.33;47.18;95312.16;5035090;28;20426;-28
2021/12/11 11:48:29;;;;;;;3.53;2.22;;;;;;;12.55;46.92;95317.28;5034882;28;20063;-28
2021/12/11 11:50:58;;;;;;;3.42;1.48;;;;;;;12.39;47.13;95313.00;5034808;28;20108;-28
2021/12/11 11:53:24;;;;;;;3.45;1.65;;;;;;;12.51;47.00;95317.44;5033651;28;20375;-28
2021/12/11 11:55:56;;;;;;;3.08;2.05;;;;;;;12.44;46.90;95308.91;5034651;28;20390;-28
2021/12/11 11:58:22;;;;;;;4.70;2.13;;;;;;;12.31;47.24;95314.59;5034719;28;20045;-28
2021/12/11 12:00:53;;;;;;;2.65;1.80;;;;;;;12.42;47.29;95314.81;5034535;28;20021;-28
2021/12/11 12:03:21;;;;;;;4.60;2.30;;;;;;;11.98;48.08;95322.06;5034529;28;20017;-28
2021/12/11 12:05:50;;;;;;;4.18;2.47;;;;;;;12.11;47.62;95322.59;5034521;28;20022;-28